Time;durP1;ratioP1;P1;durP2;ratioP2;P2;SDS_P1;SDS_P2;PMS_P1;PMS_P2;Temp;Humidity;BMP_temperature;BMP_pressure;BME280_temperature;BME280_humidity;BME280_pressure;Samples;Min_cycle;Max_cycle;Signal;HPM_P1;HPM_P2
2023/09/03 00:00:44;;;;;;;5.47;4.95;;;13.30;90.70;;;;;;5059671;28;20025;-49
2023/09/03 00:03:11;;;;;;;7.13;5.07;;;13.30;90.60;;;;;;5048625;28;20038;-46
2023/09/03 00:05:46;;;;;;;8.70;5.75;;;13.20;90.50;;;;;;5014440;28;20116;-47
2023/09/03 00:08:14;;;;;;;9.25;4.97;;;13.20;90.60;;;;;;5041806;28;20032;-50
2023/09/03 00:10:41;;;;;;;6.78;5.15;;;13.20;90.50;;;;;;5060559;28;20067;-50
2023/09/03 00:13:07;;;;;;;7.43;5.47;;;13.20;90.60;;;;;;5063411;28;20466;-45
2023/09/03 00:15:39;;;;;;;9.70;5.05;;;13.20;90.70;;;;;;5051576;28;20053;-47
2023/09/03 00:18:07;;;;;;;6.03;4.55;;;13.20;90.60;;;;;;5070640;28;20489;-48
2023/09/03 00:20:35;;;;;;;7.57;5.30;;;13.20;90.60;;;;;;5071491;28;20060;-45
2023/09/03 00:23:02;;;;;;;5.85;4.40;;;13.20;90.60;;;;;;5037918;28;20041;-45
2023/09/03 00:25:37;;;;;;;5.85;4.47;;;13.10;90.60;;;;;;5031219;28;20136;-47
2023/09/03 00:28:04;;;;;;;7.07;5.38;;;13.10;90.60;;;;;;5033313;28;20060;-45
2023/09/03 00:30:31;;;;;;;10.57;5.40;;;13.10;90.50;;;;;;5065236;28;20032;-49
2023/09/03 00:32:57;;;;;;;7.10;4.68;;;13.10;90.70;;;;;;5071197;28;20036;-46
2023/09/03 00:35:23;;;;;;;8.45;5.65;;;13.00;90.60;;;;;;5038282;28;20609;-46
2023/09/03 00:37:50;;;;;;;7.63;5.68;;;13.00;90.60;;;;;;5038567;28;20112;-47
2023/09/03 00:40:18;;;;;;;7.97;5.07;;;13.00;90.60;;;;;;5047902;28;20029;-43
2023/09/03 00:42:47;;;;;;;8.57;5.50;;;13.00;90.60;;;;;;5031310;28;20040;-47
2023/09/03 00:45:14;;;;;;;6.57;5.57;;;13.00;90.70;;;;;;5041526;28;20035;-46
2023/09/03 00:47:41;;;;;;;7.15;5.63;;;13.00;90.80;;;;;;5070918;28;20507;-47
2023/09/03 00:50:09;;;;;;;6.97;5.68;;;13.00;90.80;;;;;;5050638;28;20087;-44
2023/09/03 00:52:37;;;;;;;6.13;5.53;;;13.00;90.80;;;;;;5013791;28;20091;-49
2023/09/03 00:55:04;;;;;;;6.00;4.90;;;13.00;90.80;;;;;;5030878;28;20037;-45
2023/09/03 00:57:31;;;;;;;8.35;6.10;;;12.90;91.00;;;;;;5036159;28;20040;-45
2023/09/03 00:59:58;;;;;;;7.03;5.95;;;13.00;90.90;;;;;;5050895;28;20111;-46
2023/09/03 01:02:25;;;;;;;8.18;6.38;;;13.00;91.10;;;;;;5065184;28;20409;-48
2023/09/03 01:04:55;;;;;;;7.70;6.65;;;13.00;91.20;;;;;;5035022;28;20481;-45
2023/09/03 01:07:22;;;;;;;8.65;6.10;;;13.10;91.30;;;;;;5053165;28;20025;-46
2023/09/03 01:09:48;;;;;;;10.50;6.63;;;13.00;91.20;;;;;;5070648;28;20107;-45
2023/09/03 01:12:40;;;;;;;8.70;6.60;;;13.10;91.10;;;;;;5066331;28;20017;-45
2023/09/03 01:15:14;;;;;;;6.95;6.05;;;13.10;91.30;;;;;;5030448;28;20048;-46
2023/09/03 01:18:03;;;;;;;10.45;6.45;;;13.10;91.30;;;;;;5030749;28;20033;-46
2023/09/03 01:20:35;;;;;;;10.93;6.63;;;13.10;91.30;;;;;;5030776;28;20022;-45
2023/09/03 01:23:42;;;;;;;8.73;6.50;;;13.10;91.30;;;;;;5056241;28;20037;-47
2023/09/03 01:26:23;;;;;;;8.13;6.75;;;13.10;91.30;;;;;;5052952;28;20044;-49
2023/09/03 01:28:52;;;;;;;6.78;6.07;;;13.10;91.30;;;;;;5033649;28;20068;-44
2023/09/03 01:31:19;;;;;;;6.55;5.95;;;13.20;91.30;;;;;;5041483;28;20339;-44
2023/09/03 01:33:48;;;;;;;7.53;6.28;;;13.10;91.40;;;;;;5036914;28;20021;-48
2023/09/03 01:36:16;;;;;;;8.27;6.40;;;13.20;91.40;;;;;;5049730;28;20410;-47
2023/09/03 01:38:44;;;;;;;10.15;6.88;;;13.20;91.50;;;;;;5053147;28;20017;-45
2023/09/03 01:41:10;;;;;;;6.85;5.93;;;13.20;91.40;;;;;;5066815;28;20055;-43
2023/09/03 01:43:37;;;;;;;9.05;6.72;;;13.20;91.40;;;;;;5051058;28;20111;-47
2023/09/03 01:46:25;;;;;;;7.75;5.70;;;13.20;91.40;;;;;;5071036;28;20601;-48
2023/09/03 01:49:12;;;;;;;7.15;6.32;;;13.20;91.40;;;;;;5074539;28;20093;-49
2023/09/03 01:52:17;;;;;;;6.50;5.78;;;13.20;91.40;;;;;;5052139;28;20106;-45
2023/09/03 01:54:48;;;;;;;6.70;5.50;;;13.20;91.40;;;;;;5030968;28;20045;-49
2023/09/03 01:57:29;;;;;;;9.80;6.43;;;13.30;91.40;;;;;;5038745;28;20354;-48
2023/09/03 02:00:00;;;;;;;9.38;6.93;;;13.30;91.40;;;;;;5033566;28;20086;-44
2023/09/03 02:02:28;;;;;;;7.93;6.75;;;13.30;91.40;;;;;;5071880;28;20033;-49
2023/09/03 02:04:54;;;;;;;7.82;6.95;;;13.30;91.30;;;;;;5032418;28;20086;-46
2023/09/03 02:07:24;;;;;;;6.85;5.78;;;13.20;91.30;;;;;;5034157;28;20333;-45
2023/09/03 02:09:49;;;;;;;7.53;6.80;;;13.20;91.30;;;;;;5056341;28;20047;-45
2023/09/03 02:12:23;;;;;;;7.25;6.55;;;13.20;91.20;;;;;;5051218;28;20466;-48
2023/09/03 02:14:51;;;;;;;7.65;6.40;;;13.10;91.20;;;;;;5064278;28;20048;-45
2023/09/03 02:17:20;;;;;;;6.93;6.22;;;13.10;91.20;;;;;;5071584;28;20028;-48
2023/09/03 02:19:49;;;;;;;7.75;6.90;;;13.10;91.10;;;;;;5074144;28;20032;-47
2023/09/03 02:22:17;;;;;;;9.85;7.10;;;13.00;91.20;;;;;;5062846;28;20037;-46
2023/09/03 02:24:44;;;;;;;7.53;6.82;;;13.00;91.00;;;;;;5053739;28;20029;-45
2023/09/03 02:27:11;;;;;;;9.23;7.43;;;13.00;91.20;;;;;;5054233;28;20112;-46
2023/09/03 02:29:39;;;;;;;7.70;6.93;;;12.90;91.30;;;;;;5073647;28;20070;-43
2023/09/03 02:32:09;;;;;;;8.10;7.03;;;12.90;91.30;;;;;;5052184;28;20099;-46
2023/09/03 02:34:37;;;;;;;8.20;7.32;;;12.90;91.30;;;;;;5053945;28;20178;-50
2023/09/03 02:37:05;;;;;;;11.10;7.43;;;12.90;91.30;;;;;;5073678;28;20346;-47
2023/09/03 02:39:33;;;;;;;8.60;7.47;;;12.90;91.20;;;;;;5043214;28;20033;-48
2023/09/03 02:41:58;;;;;;;7.70;6.93;;;12.90;91.30;;;;;;5035932;28;20049;-48
2023/09/03 02:44:27;;;;;;;10.18;7.85;;;12.90;91.40;;;;;;5037455;28;20022;-47
2023/09/03 02:46:53;;;;;;;10.32;8.15;;;12.80;91.40;;;;;;5056822;28;20024;-46
2023/09/03 02:49:22;;;;;;;8.35;7.13;;;12.90;91.50;;;;;;5052212;28;20398;-44
2023/09/03 02:51:48;;;;;;;8.70;7.50;;;12.90;91.70;;;;;;5061731;28;20021;-45
2023/09/03 02:54:15;;;;;;;8.40;7.50;;;12.90;91.80;;;;;;5044427;28;20030;-44
2023/09/03 02:56:41;;;;;;;9.95;8.48;;;12.90;91.80;;;;;;5017845;28;20021;-44
2023/09/03 02:59:08;;;;;;;8.38;7.47;;;12.90;91.80;;;;;;5039087;28;20025;-48
2023/09/03 03:01:35;;;;;;;10.27;8.55;;;13.00;91.90;;;;;;5055318;28;20086;-43
2023/09/03 03:04:08;;;;;;;9.27;8.35;;;13.10;92.10;;;;;;5066857;28;20033;-43
2023/09/03 03:06:34;;;;;;;9.07;8.18;;;13.10;92.10;;;;;;5071998;28;20024;-46
2023/09/03 03:09:00;;;;;;;9.45;7.68;;;13.10;92.00;;;;;;5072230;28;20052;-44
2023/09/03 03:11:26;;;;;;;7.43;6.57;;;13.10;92.00;;;;;;5041358;28;20034;-46
2023/09/03 03:13:53;;;;;;;9.93;7.50;;;13.10;91.90;;;;;;5067709;28;20505;-43
2023/09/03 03:16:20;;;;;;;8.70;7.38;;;13.10;91.90;;;;;;5052263;28;20036;-50
2023/09/03 03:18:48;;;;;;;8.07;7.28;;;13.10;91.90;;;;;;5040043;28;20041;-43
2023/09/03 03:21:19;;;;;;;9.07;8.07;;;13.00;91.80;;;;;;5050798;28;20123;-43
2023/09/03 03:23:53;;;;;;;8.70;7.80;;;13.00;91.80;;;;;;5054649;28;20044;-45
2023/09/03 03:26:20;;;;;;;9.35;8.35;;;13.00;91.90;;;;;;5051538;28;20374;-45
2023/09/03 03:28:49;;;;;;;10.40;8.30;;;13.00;91.90;;;;;;5062841;28;20036;-44
2023/09/03 03:31:19;;;;;;;9.05;8.18;;;13.00;91.90;;;;;;5068702;28;20116;-48
2023/09/03 03:33:47;;;;;;;9.93;7.22;;;13.00;91.90;;;;;;5047905;28;20067;-43
2023/09/03 03:36:21;;;;;;;10.20;8.77;;;13.00;92.10;;;;;;5071653;28;20025;-49
2023/09/03 03:38:49;;;;;;;9.55;8.35;;;13.00;92.00;;;;;;5060990;28;20045;-44
2023/09/03 03:41:18;;;;;;;9.85;7.75;;;13.00;92.00;;;;;;4957049;28;1185525;-46
2023/09/03 03:43:46;;;;;;;8.70;6.80;;;13.00;92.00;;;;;;5054832;28;20098;-48
2023/09/03 03:46:18;;;;;;;8.32;7.53;;;13.00;92.00;;;;;;5040772;28;20627;-43
2023/09/03 03:48:47;;;;;;;10.20;8.65;;;13.00;91.90;;;;;;5072527;28;20163;-44
2023/09/03 03:51:15;;;;;;;13.43;8.80;;;13.00;91.80;;;;;;5054741;28;20032;-45
2023/09/03 03:53:42;;;;;;;10.10;8.27;;;12.90;91.90;;;;;;5039784;28;20033;-44
2023/09/03 03:56:10;;;;;;;10.80;8.57;;;12.90;91.90;;;;;;5032157;28;20358;-45
2023/09/03 03:58:39;;;;;;;9.93;7.65;;;12.90;91.80;;;;;;5030043;28;20044;-43
2023/09/03 04:01:25;;;;;;;11.23;8.23;;;12.90;91.90;;;;;;5052541;28;20116;-46
2023/09/03 04:03:54;;;;;;;8.57;7.78;;;12.90;91.80;;;;;;5053504;28;20025;-49
2023/09/03 04:06:27;;;;;;;9.65;8.73;;;12.90;91.90;;;;;;5068087;28;20016;-47
2023/09/03 04:08:54;;;;;;;9.38;8.13;;;12.90;92.00;;;;;;5054918;28;20507;-49
2023/09/03 04:11:23;;;;;;;11.93;8.30;;;12.90;91.80;;;;;;5052123;28;20037;-47
2023/09/03 04:13:50;;;;;;;9.32;8.25;;;12.80;91.90;;;;;;5056808;28;20055;-43
2023/09/03 04:16:19;;;;;;;9.82;8.63;;;12.80;91.90;;;;;;5046153;28;20028;-44
2023/09/03 04:18:50;;;;;;;8.80;8.00;;;12.80;91.80;;;;;;5065930;28;20048;-43
2023/09/03 04:21:17;;;;;;;10.40;9.40;;;12.80;91.80;;;;;;5014241;28;20033;-46
2023/09/03 04:23:44;;;;;;;9.18;8.27;;;12.80;91.80;;;;;;5038033;28;20473;-43
2023/09/03 04:26:11;;;;;;;9.65;8.65;;;12.70;91.80;;;;;;5051379;28;20033;-49
2023/09/03 04:28:37;;;;;;;10.38;8.40;;;12.70;91.90;;;;;;5033987;28;20028;-46
2023/09/03 04:31:04;;;;;;;9.55;8.55;;;12.70;92.00;;;;;;5058693;28;20025;-44
2023/09/03 04:33:31;;;;;;;9.95;9.05;;;12.70;92.00;;;;;;5051852;28;20025;-45
2023/09/03 04:35:59;;;;;;;10.10;9.07;;;12.70;92.00;;;;;;5032356;28;20583;-48
2023/09/03 04:38:27;;;;;;;9.85;8.85;;;12.80;92.10;;;;;;5049743;28;20044;-45
2023/09/03 04:40:53;;;;;;;11.20;9.45;;;12.80;92.10;;;;;;5051177;28;20187;-47
2023/09/03 04:43:20;;;;;;;10.07;9.05;;;12.80;92.10;;;;;;5061572;28;20032;-44
2023/09/03 04:45:49;;;;;;;11.77;9.82;;;12.80;92.10;;;;;;5060129;28;20573;-43
2023/09/03 04:48:17;;;;;;;11.45;8.77;;;12.80;92.10;;;;;;5050244;28;20029;-44
2023/09/03 04:50:44;;;;;;;10.18;9.15;;;12.80;92.10;;;;;;5044765;28;20082;-48
2023/09/03 04:53:13;;;;;;;10.52;9.18;;;12.80;92.10;;;;;;5050634;28;20036;-45
2023/09/03 04:55:41;;;;;;;10.80;8.02;;;12.70;92.00;;;;;;5051863;28;20048;-44
2023/09/03 04:58:08;;;;;;;9.00;7.68;;;12.70;92.10;;;;;;5049139;28;20462;-43
2023/09/03 05:00:35;;;;;;;9.40;8.43;;;12.80;92.10;;;;;;5049765;28;20029;-42
2023/09/03 05:03:04;;;;;;;10.45;9.10;;;12.80;92.10;;;;;;5030500;28;20339;-44
2023/09/03 05:05:31;;;;;;;9.30;8.40;;;12.80;92.00;;;;;;5050548;28;20033;-43
2023/09/03 05:07:57;;;;;;;11.07;8.43;;;12.90;92.10;;;;;;5049518;28;20033;-42
2023/09/03 05:10:25;;;;;;;9.63;7.43;;;12.90;92.00;;;;;;5050777;28;20486;-45
2023/09/03 05:12:54;;;;;;;10.13;9.00;;;12.90;92.00;;;;;;5053747;28;20027;-43
2023/09/03 05:15:21;;;;;;;10.07;8.30;;;12.90;91.90;;;;;;5048826;28;20043;-45
2023/09/03 05:17:50;;;;;;;10.13;8.68;;;12.90;91.90;;;;;;5027989;28;20029;-44
2023/09/03 05:20:17;;;;;;;11.77;9.73;;;12.90;91.90;;;;;;5046179;28;20111;-45
2023/09/03 05:22:44;;;;;;;9.25;8.27;;;12.90;92.00;;;;;;5049754;28;20368;-47
2023/09/03 05:25:09;;;;;;;9.60;8.55;;;12.90;92.10;;;;;;5046539;28;20033;-48
2023/09/03 05:27:37;;;;;;;10.70;9.05;;;12.90;91.90;;;;;;5049661;28;20453;-46
2023/09/03 05:30:06;;;;;;;10.82;8.90;;;13.00;91.80;;;;;;5031504;28;20029;-46
2023/09/03 05:32:34;;;;;;;9.65;8.73;;;13.00;91.90;;;;;;5065034;28;20055;-46
2023/09/03 05:35:01;;;;;;;8.63;7.82;;;13.10;91.90;;;;;;5027458;28;20021;-45
2023/09/03 05:37:27;;;;;;;9.85;8.65;;;13.20;91.90;;;;;;5038311;28;20036;-44
2023/09/03 05:39:55;;;;;;;9.43;7.60;;;13.20;91.90;;;;;;5043934;28;20119;-46
2023/09/03 05:42:22;;;;;;;8.75;7.85;;;13.20;91.80;;;;;;5049033;28;20409;-46
2023/09/03 05:44:49;;;;;;;9.57;8.00;;;13.20;91.80;;;;;;5031503;28;20485;-44
2023/09/03 05:47:18;;;;;;;10.52;7.93;;;13.30;91.90;;;;;;5033417;28;20025;-44
2023/09/03 05:49:46;;;;;;;11.10;8.30;;;13.40;91.90;;;;;;5048422;28;20645;-46
2023/09/03 05:52:13;;;;;;;9.23;7.97;;;13.40;92.00;;;;;;5056582;28;20029;-48
2023/09/03 05:54:40;;;;;;;9.45;8.52;;;13.50;92.00;;;;;;5049866;28;20044;-44
2023/09/03 05:57:09;;;;;;;8.10;7.30;;;13.50;92.00;;;;;;5042567;28;20032;-46
2023/09/03 05:59:36;;;;;;;9.13;8.13;;;13.50;92.00;;;;;;5055888;28;20025;-45
2023/09/03 06:02:03;;;;;;;8.27;7.47;;;13.60;92.00;;;;;;5061040;28;20043;-45
2023/09/03 06:04:30;;;;;;;10.40;7.40;;;13.70;92.00;;;;;;5034512;28;20133;-44
2023/09/03 06:06:57;;;;;;;8.25;7.20;;;13.70;92.10;;;;;;5053684;28;20373;-44
2023/09/03 06:09:24;;;;;;;8.85;7.72;;;13.80;92.10;;;;;;5055867;28;20082;-46
2023/09/03 06:11:51;;;;;;;12.18;8.57;;;13.90;92.10;;;;;;5061044;28;20060;-44
2023/09/03 06:14:18;;;;;;;8.23;7.47;;;13.90;92.10;;;;;;5031389;28;20037;-43
2023/09/03 06:16:44;;;;;;;8.18;7.15;;;14.00;92.00;;;;;;5051597;28;20111;-44
2023/09/03 06:19:10;;;;;;;11.32;7.82;;;14.00;92.00;;;;;;5050012;28;20041;-45
2023/09/03 06:21:37;;;;;;;7.35;6.47;;;14.10;92.10;;;;;;5060526;28;20029;-46
2023/09/03 06:24:04;;;;;;;8.90;7.07;;;14.20;92.20;;;;;;5052875;28;20505;-48
2023/09/03 06:26:31;;;;;;;7.07;6.05;;;14.40;92.30;;;;;;5064213;28;20036;-44
2023/09/03 06:28:58;;;;;;;8.43;6.80;;;14.50;92.40;;;;;;5067273;28;20020;-46
2023/09/03 06:31:25;;;;;;;9.32;6.32;;;14.60;92.30;;;;;;5053078;28;20639;-46
2023/09/03 06:33:53;;;;;;;7.05;6.40;;;14.70;92.20;;;;;;5060741;28;20094;-49
2023/09/03 06:36:19;;;;;;;7.38;6.40;;;14.80;92.10;;;;;;5043441;28;20064;-46
2023/09/03 06:38:46;;;;;;;8.82;6.40;;;14.80;91.90;;;;;;5048124;28;20025;-48
2023/09/03 06:41:12;;;;;;;6.28;5.68;;;14.90;92.00;;;;;;5031266;28;20045;-45
2023/09/03 06:43:39;;;;;;;8.10;7.13;;;15.00;91.80;;;;;;5066588;28;20037;-48
2023/09/03 06:46:07;;;;;;;6.63;5.60;;;15.00;91.80;;;;;;5026279;28;20075;-46
2023/09/03 06:48:34;;;;;;;6.80;5.47;;;15.10;91.80;;;;;;5045761;28;20024;-46
2023/09/03 06:51:03;;;;;;;8.43;5.10;;;15.30;91.90;;;;;;5034222;28;20040;-48
2023/09/03 06:53:33;;;;;;;10.23;6.13;;;15.30;91.90;;;;;;5051040;28;20017;-45
2023/09/03 06:56:00;;;;;;;;;;;15.40;91.90;;;;;;5058915;28;20033;-49
2023/09/03 06:58:26;;;;;;;5.95;4.75;;;15.60;91.80;;;;;;5023962;28;20412;-46
2023/09/03 07:00:53;;;;;;;7.53;4.88;;;15.60;91.70;;;;;;5043203;28;20114;-48
2023/09/03 07:03:20;;;;;;;7.07;6.28;;;15.80;91.80;;;;;;5052410;28;20439;-49
2023/09/03 07:05:47;;;;;;;6.78;6.07;;;15.80;91.60;;;;;;5042962;28;20060;-53
2023/09/03 07:08:14;;;;;;;9.93;6.75;;;15.90;91.50;;;;;;5057677;28;20026;-50
2023/09/03 07:10:43;;;;;;;9.32;5.20;;;16.00;91.50;;;;;;5063405;28;20020;-48
2023/09/03 07:13:10;;;;;;;7.75;5.03;;;16.10;91.30;;;;;;5047298;28;20573;-53
2023/09/03 07:15:37;;;;;;;7.00;5.05;;;16.20;91.30;;;;;;5049091;28;20041;-49
2023/09/03 07:18:04;;;;;;;6.13;5.00;;;16.20;91.10;;;;;;5052248;28;20029;-47
2023/09/03 07:20:31;;;;;;;8.73;4.70;;;16.30;90.90;;;;;;5050822;28;20099;-49
2023/09/03 07:22:57;;;;;;;7.43;4.85;;;16.40;90.80;;;;;;5047859;28;20025;-48
2023/09/03 07:25:25;;;;;;;8.05;4.85;;;16.40;90.70;;;;;;5032632;28;20029;-51
2023/09/03 07:27:51;;;;;;;7.38;4.30;;;16.50;90.70;;;;;;5044185;28;20030;-49
2023/09/03 07:30:17;;;;;;;5.30;4.30;;;16.50;90.50;;;;;;5043162;28;20833;-49
2023/09/03 07:32:44;;;;;;;9.88;5.43;;;16.70;90.60;;;;;;5039878;28;20044;-52
2023/09/03 07:35:11;;;;;;;8.88;4.20;;;16.90;90.10;;;;;;5039156;28;20112;-52
2023/09/03 07:37:38;;;;;;;5.82;4.03;;;17.00;90.20;;;;;;5043710;28;20025;-54
2023/09/03 07:48:02;;;;;;;6.50;2.85;;;17.50;88.70;;;;;;5040438;28;20057;-48
2023/09/03 07:50:31;;;;;;;6.50;2.80;;;17.80;88.00;;;;;;5026023;28;20037;-52
2023/09/03 07:53:00;;;;;;;4.70;3.15;;;18.00;87.50;;;;;;5038074;28;20031;-51
2023/09/03 07:55:27;;;;;;;5.15;2.28;;;18.10;86.60;;;;;;5032605;28;20025;-51
2023/09/03 07:57:56;;;;;;;4.07;3.20;;;18.30;86.60;;;;;;5053085;28;20025;-51
2023/09/03 08:00:23;;;;;;;4.40;3.05;;;18.40;85.10;;;;;;5042086;28;20027;-52
2023/09/03 08:02:51;;;;;;;5.75;2.90;;;18.40;84.30;;;;;;5046678;28;20445;-54
2023/09/03 08:05:18;;;;;;;5.10;2.85;;;18.70;85.10;;;;;;5041986;28;20111;-50
2023/09/03 08:07:45;;;;;;;5.90;2.55;;;18.90;84.50;;;;;;5037263;28;20029;-56
2023/09/03 08:10:12;;;;;;;3.75;2.03;;;18.90;81.80;;;;;;5031631;28;20020;-51
2023/09/03 08:12:39;;;;;;;3.65;2.28;;;19.10;82.30;;;;;;5029649;28;20028;-54
2023/09/03 08:15:07;;;;;;;3.72;2.00;;;19.20;81.30;;;;;;5052450;28;20100;-51
2023/09/03 08:17:33;;;;;;;4.50;1.83;;;19.30;81.50;;;;;;5054188;28;20116;-53
2023/09/03 08:20:07;;;;;;;3.10;1.85;;;19.30;81.30;;;;;;5042965;28;20124;-56
2023/09/03 08:22:36;;;;;;;5.15;1.70;;;19.30;81.00;;;;;;5035663;28;20037;-54
2023/09/03 08:25:03;;;;;;;4.32;1.75;;;19.30;80.40;;;;;;5031789;28;20025;-54
2023/09/03 08:27:29;;;;;;;3.90;2.10;;;19.40;79.80;;;;;;5059561;28;20040;-50
2023/09/03 08:29:56;;;;;;;5.28;2.17;;;19.50;80.10;;;;;;5051201;28;20029;-53
2023/09/03 08:32:23;;;;;;;6.93;2.40;;;19.70;80.00;;;;;;5051653;28;20151;-54
2023/09/03 08:34:53;;;;;;;4.28;2.30;;;19.90;80.10;;;;;;5044126;28;20108;-51
2023/09/03 08:37:19;;;;;;;;;;;20.00;80.20;;;;;;5042718;28;20368;-51
2023/09/03 08:39:44;;;;;;;4.28;2.22;;;19.80;78.40;;;;;;5034193;28;19913;-55
2023/09/03 08:42:14;;;;;;;6.45;2.60;;;19.90;79.40;;;;;;5029211;28;20025;-55
2023/09/03 08:44:48;;;;;;;4.18;2.10;;;20.00;79.20;;;;;;5036245;28;20523;-54
2023/09/03 08:47:17;;;;;;;5.22;2.85;;;20.20;79.30;;;;;;5034947;28;20037;-56
2023/09/03 08:49:45;;;;;;;3.72;2.30;;;20.20;78.00;;;;;;5036990;28;20362;-54
2023/09/03 08:52:13;;;;;;;5.32;2.83;;;20.30;78.10;;;;;;5034052;28;20039;-57
2023/09/03 08:54:40;;;;;;;8.77;2.90;;;20.30;78.40;;;;;;5029748;28;20029;-52
2023/09/03 08:57:09;;;;;;;4.03;2.40;;;20.40;77.00;;;;;;5049197;28;20445;-51
2023/09/03 08:59:35;;;;;;;3.65;1.90;;;20.50;77.90;;;;;;5053147;28;20031;-51
2023/09/03 09:02:02;;;;;;;5.75;1.92;;;20.70;77.80;;;;;;5029424;28;20039;-54
2023/09/03 09:04:30;;;;;;;5.80;2.50;;;20.90;77.70;;;;;;5051515;28;20493;-53
2023/09/03 09:07:00;;;;;;;4.82;1.95;;;20.80;75.20;;;;;;5044560;28;20101;-55
2023/09/03 09:09:30;;;;;;;3.35;1.35;;;20.90;76.80;;;;;;5040700;28;20064;-50
2023/09/03 09:12:10;;;;;;;6.13;2.45;;;20.90;76.20;;;;;;5040946;28;20128;-50
2023/09/03 09:14:45;;;;;;;4.50;1.88;;;20.90;75.20;;;;;;5039237;28;20064;-52
2023/09/03 09:17:15;;;;;;;4.07;1.77;;;20.90;75.00;;;;;;5043440;28;20035;-53
2023/09/03 09:19:43;;;;;;;5.07;1.40;;;21.00;75.80;;;;;;5033577;28;20037;-53
2023/09/03 09:22:11;;;;;;;5.50;1.63;;;20.90;74.20;;;;;;5047537;28;20763;-50
2023/09/03 09:24:46;;;;;;;4.15;1.77;;;20.60;74.00;;;;;;5032500;28;20072;-53
2023/09/03 09:27:20;;;;;;;4.00;2.28;;;20.40;76.20;;;;;;5049864;28;20025;-53
2023/09/03 09:29:49;;;;;;;5.00;2.35;;;20.50;76.00;;;;;;5056119;28;20020;-52
2023/09/03 09:32:35;;;;;;;4.22;2.15;;;20.70;76.80;;;;;;5043001;28;20079;-56
2023/09/03 09:35:01;;;;;;;4.00;1.80;;;20.90;77.00;;;;;;5044981;28;20040;-55
2023/09/03 09:37:40;;;;;;;2.92;1.38;;;21.00;74.40;;;;;;5030123;28;20087;-52
2023/09/03 09:40:12;;;;;;;2.85;1.55;;;21.20;74.60;;;;;;5044031;28;20025;-51
2023/09/03 09:43:08;;;;;;;3.97;1.98;;;21.40;74.10;;;;;;5047233;28;20699;-51
2023/09/03 09:45:54;;;;;;;5.63;1.60;;;21.60;71.90;;;;;;5037119;28;20513;-54
2023/09/03 09:48:20;;;;;;;3.30;1.80;;;21.70;73.60;;;;;;5052038;28;20418;-54
2023/09/03 09:50:48;;;;;;;4.25;1.60;;;21.90;74.20;;;;;;5018364;28;20067;-55
2023/09/03 09:53:24;;;;;;;3.97;1.48;;;22.00;71.20;;;;;;5037770;28;20037;-54
2023/09/03 09:56:09;;;;;;;5.53;1.50;;;21.90;70.90;;;;;;5057654;28;20377;-54
2023/09/03 09:58:37;;;;;;;4.60;1.65;;;21.90;72.20;;;;;;5052049;28;20080;-56
2023/09/03 10:01:10;;;;;;;4.60;1.60;;;21.90;70.70;;;;;;5031426;28;20033;-54
2023/09/03 10:03:42;;;;;;;2.85;1.20;;;21.70;70.00;;;;;;5030510;28;20504;-55
2023/09/03 10:06:12;;;;;;;5.47;2.13;;;21.20;69.20;;;;;;5047379;28;20039;-56
2023/09/03 10:08:41;;;;;;;3.42;1.48;;;21.20;71.80;;;;;;5045621;28;20075;-57
2023/09/03 10:11:07;;;;;;;2.90;1.17;;;21.20;69.20;;;;;;5044626;28;20023;-54
2023/09/03 10:13:34;;;;;;;3.35;1.20;;;21.40;72.50;;;;;;5031367;28;20088;-57
2023/09/03 10:16:05;;;;;;;3.40;1.65;;;21.70;71.50;;;;;;5034600;28;20030;-54
2023/09/03 10:18:39;;;;;;;5.32;1.60;;;21.80;70.30;;;;;;5040250;28;20065;-53
2023/09/03 10:21:09;;;;;;;3.90;1.30;;;21.40;70.10;;;;;;5041485;28;20043;-53
2023/09/03 10:23:47;;;;;;;4.20;2.17;;;21.40;71.30;;;;;;5044432;28;20052;-54
2023/09/03 10:26:21;;;;;;;3.00;1.40;;;21.50;71.50;;;;;;5009671;28;20037;-55
2023/09/03 10:28:56;;;;;;;3.90;1.30;;;21.70;72.30;;;;;;5054746;28;20029;-53
2023/09/03 10:31:26;;;;;;;3.58;1.88;;;21.90;71.40;;;;;;5025756;28;20655;-55
2023/09/03 10:33:53;;;;;;;3.30;1.70;;;22.20;70.50;;;;;;5034337;28;20119;-54
2023/09/03 10:36:21;;;;;;;4.25;1.40;;;22.20;70.80;;;;;;5032050;28;20051;-55
2023/09/03 10:38:48;;;;;;;3.05;1.50;;;21.90;69.30;;;;;;5050590;28;20025;-54
2023/09/03 10:41:22;;;;;;;4.75;1.90;;;21.40;70.80;;;;;;5047015;28;20074;-55
2023/09/03 10:43:55;;;;;;;2.80;1.33;;;21.10;72.60;;;;;;5026546;28;20036;-54
2023/09/03 10:46:22;;;;;;;2.95;1.40;;;20.90;68.20;;;;;;5018446;28;20033;-52
2023/09/03 10:48:55;;;;;;;2.42;1.08;;;21.20;70.50;;;;;;5041862;28;20541;-56
2023/09/03 10:51:39;;;;;;;3.00;1.25;;;21.40;69.30;;;;;;5028460;28;20045;-56
2023/09/03 10:54:25;;;;;;;3.47;1.63;;;21.50;69.80;;;;;;5042233;28;20029;-52
2023/09/03 10:57:13;;;;;;;3.55;1.42;;;21.40;69.80;;;;;;5049124;28;20021;-56
2023/09/03 10:59:57;;;;;;;3.67;1.52;;;21.10;69.80;;;;;;5046030;28;20030;-54
2023/09/03 11:02:29;;;;;;;4.32;1.40;;;20.70;70.30;;;;;;5048408;28;20576;-57
2023/09/03 11:05:23;;;;;;;5.78;1.67;;;20.40;70.80;;;;;;5043275;28;20041;-57
2023/09/03 11:08:18;;;;;;;3.65;1.60;;;20.50;71.40;;;;;;5027565;28;20446;-55
2023/09/03 11:10:49;;;;;;;6.45;1.52;;;20.70;69.00;;;;;;5048509;28;20028;-55
2023/09/03 11:13:16;;;;;;;4.55;1.50;;;20.50;69.20;;;;;;5047327;28;20025;-53
2023/09/03 11:15:52;;;;;;;4.10;1.33;;;20.60;69.50;;;;;;5051293;28;20483;-55
2023/09/03 11:18:22;;;;;;;2.80;1.17;;;20.60;68.30;;;;;;5041996;28;20048;-53
2023/09/03 11:20:50;;;;;;;3.65;1.48;;;20.90;70.60;;;;;;5027635;28;20128;-53
2023/09/03 11:23:17;;;;;;;3.03;1.38;;;21.20;68.90;;;;;;5040983;28;20096;-52
2023/09/03 11:25:45;;;;;;;2.38;1.23;;;21.20;68.80;;;;;;5056219;28;20025;-55
2023/09/03 11:28:12;;;;;;;2.72;1.00;;;20.90;69.10;;;;;;5041037;28;20457;-55
2023/09/03 11:30:40;;;;;;;3.50;1.23;;;20.70;69.90;;;;;;5048339;28;20125;-54
2023/09/03 11:33:10;;;;;;;3.17;1.50;;;20.60;72.00;;;;;;5024104;28;20374;-54
2023/09/03 11:35:54;;;;;;;2.15;1.20;;;20.70;71.30;;;;;;5041785;28;20033;-54
2023/09/03 11:38:27;;;;;;;1.90;1.05;;;20.90;69.40;;;;;;5043893;28;20017;-57
2023/09/03 11:40:58;;;;;;;2.58;1.05;;;21.20;70.60;;;;;;5051296;28;20035;-54
2023/09/03 11:43:29;;;;;;;4.82;1.50;;;21.40;69.50;;;;;;5047521;28;20450;-54
2023/09/03 11:45:57;;;;;;;3.05;1.50;;;21.60;71.00;;;;;;5042191;28;20624;-55
2023/09/03 11:48:32;;;;;;;2.95;1.20;;;21.60;70.30;;;;;;5029451;28;20347;-55
2023/09/03 11:50:59;;;;;;;2.38;1.27;;;21.20;69.30;;;;;;5019463;28;20087;-56
2023/09/03 11:53:25;;;;;;;4.63;1.25;;;21.10;70.80;;;;;;5013044;28;20105;-55
2023/09/03 11:55:56;;;;;;;3.67;1.85;;;21.30;69.80;;;;;;5031768;28;20109;-57
2023/09/03 11:58:27;;;;;;;6.30;1.98;;;21.30;70.30;;;;;;5020930;28;20084;-54
2023/09/03 12:00:56;;;;;;;3.30;1.35;;;21.40;71.30;;;;;;5031575;28;20048;-53
2023/09/03 12:03:23;;;;;;;3.85;1.17;;;21.20;69.30;;;;;;5031083;28;20443;-53
2023/09/03 12:05:51;;;;;;;3.40;1.50;;;21.30;70.40;;;;;;5027523;28;20037;-52
2023/09/03 12:08:20;;;;;;;2.63;1.33;;;21.10;69.90;;;;;;5022368;28;20028;-54
2023/09/03 12:10:49;;;;;;;3.20;1.30;;;21.10;70.50;;;;;;5031076;28;20079;-56
2023/09/03 12:13:28;;;;;;;3.13;1.25;;;21.00;71.40;;;;;;5027047;28;20383;-54
2023/09/03 12:16:15;;;;;;;3.45;1.30;;;21.10;71.20;;;;;;5025687;28;20044;-53
2023/09/03 12:19:02;;;;;;;3.13;1.35;;;21.40;71.40;;;;;;5022496;28;20044;-52
2023/09/03 12:21:36;;;;;;;3.25;1.30;;;21.50;71.00;;;;;;5025394;28;20045;-53
2023/09/03 12:24:05;;;;;;;2.28;1.20;;;21.50;70.00;;;;;;5030395;28;20036;-56
2023/09/03 12:26:35;;;;;;;3.13;1.20;;;21.70;70.80;;;;;;5009819;28;20448;-55
2023/09/03 12:29:03;;;;;;;6.60;1.42;;;21.80;70.90;;;;;;5021578;28;20029;-52
2023/09/03 12:31:41;;;;;;;3.83;1.23;;;21.90;69.60;;;;;;5011870;28;20037;-55
2023/09/03 12:34:08;;;;;;;5.22;1.40;;;21.80;69.70;;;;;;5011802;28;20029;-55
2023/09/03 12:36:57;;;;;;;4.00;1.02;;;21.50;69.50;;;;;;5028760;28;20037;-56
2023/09/03 12:39:34;;;;;;;3.15;1.13;;;21.50;71.50;;;;;;5017428;28;20030;-54
2023/09/03 12:42:04;;;;;;;4.35;1.88;;;21.50;70.90;;;;;;5025548;28;20083;-54
2023/09/03 12:44:32;;;;;;;4.38;1.17;;;21.50;70.40;;;;;;5029062;28;20037;-53
2023/09/03 12:47:00;;;;;;;3.22;1.73;;;21.40;70.70;;;;;;5030131;28;20024;-54
2023/09/03 12:49:27;;;;;;;4.90;1.40;;;21.40;70.60;;;;;;5040646;28;20047;-56
2023/09/03 12:51:55;;;;;;;4.95;1.45;;;21.40;69.20;;;;;;5047939;28;20029;-54
2023/09/03 12:54:27;;;;;;;4.22;1.33;;;21.40;70.10;;;;;;5039813;28;20091;-54
2023/09/03 12:56:54;;;;;;;4.45;1.45;;;21.40;70.00;;;;;;5043825;28;20033;-55
2023/09/03 12:59:21;;;;;;;3.65;1.35;;;21.40;70.50;;;;;;5045073;28;20025;-53
2023/09/03 13:01:48;;;;;;;2.65;1.23;;;21.40;70.50;;;;;;5032084;28;20135;-57
2023/09/03 13:04:14;;;;;;;4.28;1.15;;;21.40;70.20;;;;;;5038066;28;20044;-56
2023/09/03 13:06:42;;;;;;;3.88;1.50;;;21.20;70.30;;;;;;5027990;28;20037;-56